createdAt,value
2023-03-17T00:00:54.026Z,90.08
2023-03-17T00:01:53.967Z,90.17
2023-03-17T00:02:53.979Z,89.98
2023-03-17T00:03:53.947Z,89.98
2023-03-17T00:04:53.855Z,89.79
2023-03-17T00:05:53.833Z,90.08
2023-03-17T00:06:53.802Z,89.79
2023-03-17T00:07:53.754Z,89.98
2023-03-17T00:08:53.711Z,89.94
2023-03-17T00:09:53.680Z,90.08
2023-03-17T00:10:53.639Z,90.13
2023-03-17T00:11:53.609Z,89.98
2023-03-17T00:12:53.569Z,90.17
2023-03-17T00:13:53.528Z,89.70
2023-03-17T00:14:53.492Z,90.08
2023-03-17T00:15:53.506Z,89.98
2023-03-17T00:16:53.426Z,90.17
2023-03-17T00:17:53.383Z,89.75
2023-03-17T00:18:53.347Z,90.17
2023-03-17T00:19:53.328Z,89.94
2023-03-17T00:20:53.276Z,90.03
2023-03-17T00:21:53.242Z,89.89
2023-03-17T00:22:53.204Z,90.03
2023-03-17T00:23:53.166Z,90.08
2023-03-17T00:24:53.129Z,90.22
2023-03-17T00:25:53.105Z,89.56
2023-03-17T00:26:53.061Z,89.84
2023-03-17T00:27:53.049Z,90.22
2023-03-17T00:28:53.018Z,89.94
2023-03-17T00:29:52.960Z,90.22
2023-03-17T00:30:52.952Z,89.65
2023-03-17T00:31:52.873Z,90.22
2023-03-17T00:32:52.872Z,89.84
2023-03-17T00:33:52.813Z,89.94
2023-03-17T00:34:52.777Z,89.94
2023-03-17T00:35:52.789Z,90.03
2023-03-17T00:36:52.692Z,90.13
2023-03-17T00:37:52.651Z,89.94
2023-03-17T00:38:52.701Z,90.13
2023-03-17T00:39:52.593Z,89.89
2023-03-17T00:40:52.540Z,89.84
2023-03-17T00:41:52.500Z,89.27
2023-03-17T00:42:52.466Z,89.94
2023-03-17T00:43:52.429Z,90.32
2023-03-17T00:44:52.390Z,90.27
2023-03-17T00:45:52.353Z,90.03
2023-03-17T00:46:52.420Z,90.03
2023-03-17T00:47:52.282Z,89.22
2023-03-17T00:48:52.248Z,89.65
2023-03-17T00:49:52.211Z,89.94
2023-03-17T00:50:52.192Z,89.47
2023-03-17T00:51:52.149Z,89.61
2023-03-17T00:52:52.105Z,89.27
2023-03-17T00:53:52.067Z,89.94
2023-03-17T00:54:52.024Z,89.47
2023-03-17T00:55:51.989Z,89.89
2023-03-17T00:56:51.956Z,90.13
2023-03-17T00:57:51.917Z,89.94
2023-03-17T00:58:51.886Z,89.79
2023-03-17T00:59:51.842Z,90.13
2023-03-17T01:00:51.826Z,90.51
2023-03-17T01:01:51.818Z,90.51
2023-03-17T01:02:51.734Z,90.22
2023-03-17T01:03:51.698Z,90.36
2023-03-17T01:04:59.797Z,90.42
2023-03-17T01:05:51.626Z,89.94
2023-03-17T01:06:51.590Z,90.42
2023-03-17T01:07:51.565Z,90.42
2023-03-17T01:08:51.515Z,90.22
2023-03-17T01:09:51.479Z,90.22
2023-03-17T01:10:51.437Z,90.13
2023-03-17T01:11:51.405Z,90.03
2023-03-17T01:12:51.362Z,90.22
2023-03-17T01:13:51.332Z,90.03
2023-03-17T01:14:51.297Z,90.13
2023-03-17T01:15:51.263Z,90.13
2023-03-17T01:16:51.218Z,90.03
2023-03-17T01:17:51.198Z,89.94
2023-03-17T01:18:51.170Z,90.03
2023-03-17T01:19:51.111Z,90.03
2023-03-17T01:20:51.073Z,90.03
2023-03-17T01:21:51.076Z,89.94
2023-03-17T01:22:51.022Z,89.75
2023-03-17T01:23:50.959Z,89.94
2023-03-17T01:24:50.926Z,89.94
2023-03-17T01:25:50.906Z,89.94
2023-03-17T01:26:50.872Z,89.94
2023-03-17T01:27:50.820Z,90.13
2023-03-17T01:28:50.804Z,89.84
2023-03-17T01:29:50.742Z,90.61
2023-03-17T01:30:50.706Z,89.94
2023-03-17T01:31:50.692Z,90.13
2023-03-17T01:32:50.717Z,90.03
2023-03-17T01:33:50.605Z,90.22
2023-03-17T01:34:50.565Z,90.13
2023-03-17T01:35:50.559Z,89.94
2023-03-17T01:36:50.490Z,90.13
2023-03-17T01:37:50.450Z,89.84
2023-03-17T01:38:50.422Z,90.22
2023-03-17T01:39:50.389Z,89.65
2023-03-17T01:40:50.359Z,90.13
2023-03-17T01:41:50.319Z,90.22
2023-03-17T01:42:50.272Z,90.13
2023-03-17T01:43:50.228Z,90.13
2023-03-17T01:44:50.196Z,89.84
2023-03-17T01:45:50.223Z,89.94
2023-03-17T01:46:50.121Z,89.94
2023-03-17T01:47:50.085Z,90.03
2023-03-17T01:48:50.045Z,90.13
2023-03-17T01:49:50.008Z,89.84
2023-03-17T01:50:49.975Z,89.75
2023-03-17T01:51:49.936Z,90.03
2023-03-17T01:52:49.902Z,90.22
2023-03-17T01:53:49.873Z,90.32
2023-03-17T01:54:49.828Z,90.32
2023-03-17T01:55:49.797Z,90.03
2023-03-17T01:56:49.758Z,90.03
2023-03-17T01:57:49.713Z,90.42
2023-03-17T01:58:49.678Z,89.84
2023-03-17T01:59:49.652Z,89.84
2023-03-17T02:00:49.621Z,90.13
2023-03-17T02:01:49.585Z,90.22
2023-03-17T02:02:49.538Z,90.51
2023-03-17T02:03:49.555Z,90.51
2023-03-17T02:04:49.459Z,90.42
2023-03-17T02:05:49.453Z,90.13
2023-03-17T02:06:58.776Z,90.22
2023-03-17T02:07:49.351Z,90.51
2023-03-17T02:08:49.310Z,90.80
2023-03-17T02:09:49.290Z,90.99
2023-03-17T02:10:49.249Z,90.99
2023-03-17T02:11:49.202Z,90.80
2023-03-17T02:12:49.168Z,90.32
2023-03-17T02:13:49.127Z,90.89
2023-03-17T02:14:49.094Z,90.89
2023-03-17T02:15:49.062Z,90.99
2023-03-17T02:16:49.027Z,90.70
2023-03-17T02:17:48.977Z,91.37
2023-03-17T02:18:48.950Z,90.89
2023-03-17T02:19:48.911Z,90.89
2023-03-17T02:20:48.886Z,90.80
2023-03-17T02:21:48.834Z,90.51
2023-03-17T02:22:48.807Z,90.89
2023-03-17T02:23:48.757Z,90.89
2023-03-17T02:24:48.722Z,91.17
2023-03-17T02:25:48.687Z,90.89
2023-03-17T02:26:48.651Z,90.80
2023-03-17T02:27:48.623Z,90.32
2023-03-17T02:28:48.586Z,90.51
2023-03-17T02:29:48.542Z,90.47
2023-03-17T02:30:48.541Z,90.28
2023-03-17T02:31:48.462Z,90.84
2023-03-17T02:32:48.458Z,90.75
2023-03-17T02:33:48.388Z,90.22
2023-03-17T02:34:48.358Z,91.22
2023-03-17T02:35:48.339Z,91.42
2023-03-17T02:36:48.314Z,91.42
2023-03-17T02:37:48.252Z,91.08
2023-03-17T02:38:48.210Z,91.61
2023-03-17T02:39:48.168Z,91.70
2023-03-17T02:40:48.139Z,91.80
2023-03-17T02:41:48.098Z,91.61
2023-03-17T02:42:48.110Z,91.51
2023-03-17T02:43:48.030Z,91.42
2023-03-17T02:44:48.013Z,91.51
2023-03-17T02:45:47.970Z,91.80
2023-03-17T02:46:47.926Z,91.80
2023-03-17T02:47:47.888Z,91.70
2023-03-17T02:48:47.842Z,91.42
2023-03-17T02:49:47.810Z,91.22
2023-03-17T02:50:47.778Z,91.99
2023-03-17T02:51:47.757Z,91.80
2023-03-17T02:52:47.695Z,91.80
2023-03-17T02:53:47.690Z,91.99
2023-03-17T02:54:47.620Z,91.42
2023-03-17T02:55:47.583Z,91.61
2023-03-17T02:56:47.550Z,91.61
2023-03-17T02:57:47.508Z,91.70
2023-03-17T02:58:47.482Z,91.42
2023-03-17T02:59:47.436Z,92.08
2023-03-17T03:00:47.404Z,91.80
2023-03-17T03:01:47.386Z,91.70
2023-03-17T03:02:47.396Z,92.08
2023-03-17T03:03:47.290Z,91.70
2023-03-17T03:04:47.251Z,91.80
2023-03-17T03:05:47.214Z,92.08
2023-03-17T03:06:47.183Z,92.36
2023-03-17T03:07:47.147Z,92.56
2023-03-17T03:08:47.114Z,92.36
2023-03-17T03:09:47.066Z,92.18
2023-03-17T03:10:47.030Z,92.46
2023-03-17T03:11:46.992Z,92.36
2023-03-17T03:12:46.955Z,92.27
2023-03-17T03:13:46.919Z,92.46
2023-03-17T03:14:46.891Z,92.65
2023-03-17T03:15:46.891Z,92.36
2023-03-17T03:16:46.805Z,92.56
2023-03-17T03:17:46.775Z,92.36
2023-03-17T03:18:46.737Z,92.75
2023-03-17T03:19:46.698Z,92.75
2023-03-17T03:20:46.666Z,92.65
2023-03-17T03:21:46.618Z,92.46
2023-03-17T03:22:46.594Z,92.75
2023-03-17T03:23:46.546Z,92.56
2023-03-17T03:24:46.513Z,93.23
2023-03-17T03:25:46.470Z,93.13
2023-03-17T03:26:46.438Z,92.94
2023-03-17T03:27:46.409Z,93.23
2023-03-17T03:28:46.358Z,93.13
2023-03-17T03:29:46.337Z,92.94
2023-03-17T03:30:46.328Z,92.46
2023-03-17T03:31:46.246Z,92.94
2023-03-17T03:32:46.264Z,93.13
2023-03-17T03:33:46.187Z,93.32
2023-03-17T03:34:46.142Z,93.23
2023-03-17T03:35:46.124Z,93.23
2023-03-17T03:36:46.068Z,92.94
2023-03-17T03:37:46.053Z,93.13
2023-03-17T03:38:45.998Z,93.13
2023-03-17T03:39:45.954Z,92.94
2023-03-17T03:40:45.916Z,93.13
2023-03-17T03:41:45.877Z,93.13
2023-03-17T03:42:45.847Z,93.04
2023-03-17T03:43:45.806Z,93.13
2023-03-17T03:44:45.763Z,93.13
2023-03-17T03:45:45.738Z,93.13
2023-03-17T03:46:45.841Z,93.89
2023-03-17T03:47:45.662Z,93.65
2023-03-17T03:48:45.618Z,93.41
2023-03-17T03:49:45.582Z,93.41
2023-03-17T03:50:45.540Z,93.41
2023-03-17T03:51:45.512Z,93.51
2023-03-17T03:52:45.476Z,93.46
2023-03-17T03:53:45.443Z,93.41
2023-03-17T03:54:45.399Z,93.89
2023-03-17T03:55:45.350Z,93.41
2023-03-17T03:56:45.314Z,93.13
2023-03-17T03:57:45.279Z,93.13
2023-03-17T03:58:45.242Z,93.51
2023-03-17T03:59:45.209Z,93.70
2023-03-17T04:00:45.176Z,93.98
2023-03-17T04:01:45.132Z,93.98
2023-03-17T04:02:45.207Z,93.70
2023-03-17T04:03:45.053Z,94.08
2023-03-17T04:04:45.028Z,93.98
2023-03-17T04:05:44.983Z,94.08
2023-03-17T04:06:44.942Z,94.22
2023-03-17T04:07:44.911Z,94.03
2023-03-17T04:08:44.883Z,94.13
2023-03-17T04:09:44.830Z,93.79
2023-03-17T04:10:44.797Z,93.94
2023-03-17T04:11:44.759Z,93.98
2023-03-17T04:12:44.724Z,93.84
2023-03-17T04:13:44.680Z,94.03
2023-03-17T04:14:44.644Z,94.32
2023-03-17T04:15:44.608Z,93.46
2023-03-17T04:16:44.574Z,93.37
2023-03-17T04:17:44.535Z,93.89
2023-03-17T04:18:44.642Z,94.22
2023-03-17T04:19:44.459Z,94.18
2023-03-17T04:20:44.423Z,94.13
2023-03-17T04:21:44.410Z,94.27
2023-03-17T04:22:44.354Z,93.84
2023-03-17T04:23:44.320Z,94.22
2023-03-17T04:24:44.274Z,94.22
2023-03-17T04:25:44.233Z,93.84
2023-03-17T04:26:44.202Z,93.75
2023-03-17T04:27:44.170Z,93.94
2023-03-17T04:28:44.125Z,93.84
2023-03-17T04:29:44.084Z,93.84
2023-03-17T04:30:44.050Z,94.03
2023-03-17T04:31:44.092Z,93.84
2023-03-17T04:32:44.030Z,93.94
2023-03-17T04:33:43.940Z,93.84
2023-03-17T04:34:43.908Z,94.03
2023-03-17T04:35:43.920Z,94.03
2023-03-17T04:36:43.825Z,93.37
2023-03-17T04:37:43.787Z,93.46
2023-03-17T04:38:43.756Z,93.94
2023-03-17T04:39:43.717Z,94.03
2023-03-17T04:40:43.678Z,94.22
2023-03-17T04:41:43.650Z,93.94
2023-03-17T04:42:43.597Z,94.08
2023-03-17T04:43:43.577Z,94.32
2023-03-17T04:44:43.527Z,94.03
2023-03-17T04:45:43.527Z,94.03
2023-03-17T04:46:43.449Z,94.03
2023-03-17T04:47:43.413Z,93.94
2023-03-17T04:48:43.381Z,94.03
2023-03-17T04:49:43.336Z,94.03
2023-03-17T04:50:43.312Z,94.13
2023-03-17T04:51:43.276Z,94.03
2023-03-17T04:52:43.229Z,94.32
2023-03-17T04:53:43.188Z,94.32
2023-03-17T04:54:43.159Z,94.13
2023-03-17T04:55:43.119Z,94.13
2023-03-17T04:56:43.081Z,94.03
2023-03-17T04:57:43.043Z,94.03
2023-03-17T04:58:43.008Z,93.84
2023-03-17T04:59:42.976Z,93.08
2023-03-17T05:00:43.001Z,93.37
2023-03-17T05:01:42.894Z,93.37
2023-03-17T05:02:42.941Z,93.55
2023-03-17T05:03:42.816Z,93.18
2023-03-17T05:04:42.788Z,93.37
2023-03-17T05:05:42.753Z,93.27
2023-03-17T05:06:42.788Z,94.03
2023-03-17T05:07:42.672Z,94.03
2023-03-17T05:08:42.645Z,93.84
2023-03-17T05:09:42.624Z,93.94
2023-03-17T05:10:42.631Z,94.13
2023-03-17T05:11:42.526Z,93.94
2023-03-17T05:12:42.479Z,93.84
2023-03-17T05:13:42.448Z,93.84
2023-03-17T05:14:42.410Z,94.03
2023-03-17T05:15:42.374Z,94.03
2023-03-17T05:16:42.387Z,93.84
2023-03-17T05:17:42.296Z,94.22
2023-03-17T05:18:42.260Z,94.32
2023-03-17T05:19:42.223Z,94.03
2023-03-17T05:20:42.184Z,94.60
2023-03-17T05:21:42.142Z,94.03
2023-03-17T05:22:42.117Z,94.42
2023-03-17T05:23:42.072Z,94.70
2023-03-17T05:24:42.046Z,94.22
2023-03-17T05:25:41.998Z,94.32
2023-03-17T05:26:41.963Z,93.94
2023-03-17T05:27:41.927Z,94.27
2023-03-17T05:28:41.884Z,93.84
2023-03-17T05:29:41.846Z,93.65
2023-03-17T05:30:41.820Z,94.08
2023-03-17T05:31:41.775Z,94.03
2023-03-17T05:32:41.768Z,93.84
2023-03-17T05:33:41.708Z,93.98
2023-03-17T05:34:41.664Z,94.03
2023-03-17T05:35:41.662Z,94.18
2023-03-17T05:36:41.587Z,93.75
2023-03-17T05:37:41.551Z,94.27
2023-03-17T05:38:41.511Z,94.03
2023-03-17T05:39:41.476Z,93.84
2023-03-17T05:40:41.444Z,94.22
2023-03-17T05:41:41.398Z,94.27
2023-03-17T05:42:41.364Z,94.32
2023-03-17T05:43:41.365Z,94.32
2023-03-17T05:44:41.289Z,94.22
2023-03-17T05:45:41.330Z,94.18
2023-03-17T05:46:41.242Z,94.08
2023-03-17T05:47:41.191Z,94.03
2023-03-17T05:48:41.139Z,93.84
2023-03-17T05:49:41.103Z,93.55
2023-03-17T05:50:41.062Z,93.89
2023-03-17T05:51:41.028Z,93.94
2023-03-17T05:52:40.990Z,93.84
2023-03-17T05:53:40.971Z,94.03
2023-03-17T05:54:40.923Z,93.98
2023-03-17T05:55:40.912Z,93.84
2023-03-17T05:56:40.845Z,93.98
2023-03-17T05:57:40.806Z,93.94
2023-03-17T05:58:40.770Z,93.89
2023-03-17T05:59:40.733Z,93.70
2023-03-17T06:00:40.691Z,93.98
2023-03-17T06:01:40.656Z,94.08
2023-03-17T06:02:40.694Z,94.18
2023-03-17T06:03:40.608Z,93.94
2023-03-17T06:04:40.544Z,94.18
2023-03-17T06:05:40.512Z,93.41
2023-03-17T06:06:40.479Z,93.41
2023-03-17T06:07:51.742Z,93.60
2023-03-17T06:08:40.404Z,93.13
2023-03-17T06:09:40.357Z,93.60
2023-03-17T06:10:40.334Z,94.27
2023-03-17T06:11:40.285Z,93.98
2023-03-17T06:12:40.247Z,94.08
2023-03-17T06:13:40.210Z,93.13
2023-03-17T06:14:40.171Z,93.13
2023-03-17T06:15:40.183Z,93.51
2023-03-17T06:16:40.107Z,93.51
2023-03-17T06:17:40.064Z,93.41
2023-03-17T06:18:40.031Z,93.70
2023-03-17T06:19:40.004Z,93.04
2023-03-17T06:20:39.956Z,92.84
2023-03-17T06:21:39.911Z,93.04
2023-03-17T06:22:51.698Z,93.70
2023-03-17T06:23:39.840Z,93.60
2023-03-17T06:24:39.808Z,93.70
2023-03-17T06:25:39.779Z,93.60
2023-03-17T06:26:39.739Z,93.41
2023-03-17T06:27:39.690Z,93.79
2023-03-17T06:28:39.652Z,93.32
2023-03-17T06:29:39.620Z,92.94
2023-03-17T06:30:40.852Z,92.75
2023-03-17T06:31:39.576Z,93.23
2023-03-17T06:32:39.534Z,92.94
2023-03-17T06:33:39.464Z,93.23
2023-03-17T06:34:39.426Z,93.13
2023-03-17T06:35:39.418Z,93.32
2023-03-17T06:36:39.358Z,93.13
2023-03-17T06:37:39.320Z,92.94
2023-03-17T06:38:39.293Z,93.23
2023-03-17T06:39:39.246Z,93.13
2023-03-17T06:40:39.211Z,93.13
2023-03-17T06:41:39.181Z,93.04
2023-03-17T06:42:39.134Z,93.13
2023-03-17T06:43:39.097Z,92.46
2023-03-17T06:44:39.063Z,92.94
2023-03-17T06:45:39.024Z,92.56
2023-03-17T06:46:39.027Z,92.56
2023-03-17T06:47:38.962Z,92.60
2023-03-17T06:48:38.908Z,92.13
2023-03-17T06:49:38.877Z,92.51
2023-03-17T06:50:38.846Z,92.70
2023-03-17T06:51:38.801Z,92.60
2023-03-17T06:52:38.769Z,92.60
2023-03-17T06:53:38.729Z,92.60
2023-03-17T06:54:38.707Z,92.41
2023-03-17T06:55:38.660Z,92.51
2023-03-17T06:56:38.613Z,92.89
2023-03-17T06:57:38.588Z,92.60
2023-03-17T06:58:38.545Z,92.60
2023-03-17T06:59:38.505Z,92.89
2023-03-17T07:00:38.471Z,92.60
2023-03-17T07:01:38.513Z,92.22
2023-03-17T07:02:38.396Z,92.60
2023-03-17T07:03:38.619Z,92.70
2023-03-17T07:04:38.398Z,92.41
2023-03-17T07:05:38.284Z,91.65
2023-03-17T07:06:38.246Z,92.03
2023-03-17T07:07:38.211Z,92.13
2023-03-17T07:08:38.172Z,92.13
2023-03-17T07:09:38.138Z,91.65
2023-03-17T07:10:38.114Z,91.46
2023-03-17T07:11:38.066Z,91.46
2023-03-17T07:12:38.020Z,91.46
2023-03-17T07:13:37.998Z,91.75
2023-03-17T07:14:37.954Z,91.65
2023-03-17T07:15:37.915Z,92.08
2023-03-17T07:16:37.976Z,91.70
2023-03-17T07:17:37.840Z,91.51
2023-03-17T07:18:37.805Z,91.51
2023-03-17T07:19:37.771Z,91.31
2023-03-17T07:20:37.759Z,90.65
2023-03-17T07:21:37.710Z,90.75
2023-03-17T07:22:37.712Z,90.94
2023-03-17T07:23:37.642Z,91.03
2023-03-17T07:24:37.599Z,90.94
2023-03-17T07:25:37.556Z,91.03
2023-03-17T07:26:37.538Z,91.03
2023-03-17T07:27:37.496Z,91.22
2023-03-17T07:28:37.480Z,90.94
2023-03-17T07:29:37.439Z,91.03
2023-03-17T07:30:37.384Z,90.84
2023-03-17T07:31:37.414Z,91.13
2023-03-17T07:32:37.333Z,90.56
2023-03-17T07:33:37.266Z,90.75
2023-03-17T07:34:37.240Z,90.36
2023-03-17T07:35:37.243Z,90.75
2023-03-17T07:36:37.149Z,90.56
2023-03-17T07:37:37.118Z,90.41
2023-03-17T07:38:37.082Z,90.22
2023-03-17T07:39:37.034Z,90.22
2023-03-17T07:40:37.003Z,90.12
2023-03-17T07:41:36.966Z,90.41
2023-03-17T07:42:36.937Z,90.12
2023-03-17T07:43:36.908Z,90.89
2023-03-17T07:44:36.854Z,90.89
2023-03-17T07:45:36.819Z,90.31
2023-03-17T07:46:36.811Z,90.03
2023-03-17T07:47:36.768Z,90.50
2023-03-17T07:48:36.710Z,90.41
2023-03-17T07:49:41.797Z,90.22
2023-03-17T07:50:36.640Z,90.12
2023-03-17T07:51:36.605Z,90.45
2023-03-17T07:52:36.579Z,90.55
2023-03-17T07:53:36.529Z,90.26
2023-03-17T07:54:36.493Z,89.50
2023-03-17T07:55:36.453Z,89.89
2023-03-17T07:56:36.420Z,89.89
2023-03-17T07:57:36.408Z,89.60
2023-03-17T07:58:36.354Z,89.03
2023-03-17T07:59:36.328Z,89.03
2023-03-17T08:00:36.590Z,89.12
2023-03-17T08:01:36.309Z,88.93
2023-03-17T08:02:36.338Z,88.84
2023-03-17T08:03:36.228Z,88.93
2023-03-17T08:04:36.163Z,88.64
2023-03-17T08:05:36.115Z,88.64
2023-03-17T08:06:36.075Z,88.55
2023-03-17T08:07:36.071Z,88.74
2023-03-17T08:08:36.022Z,88.26
2023-03-17T08:09:35.965Z,88.64
2023-03-17T08:10:36.221Z,88.40
2023-03-17T08:11:35.893Z,88.40
2023-03-17T08:12:35.863Z,88.59
2023-03-17T08:13:35.846Z,88.59
2023-03-17T08:14:35.782Z,88.50
2023-03-17T08:15:35.780Z,88.50
2023-03-17T08:16:35.730Z,88.59
2023-03-17T08:17:35.674Z,88.40
2023-03-17T08:18:35.637Z,88.40
2023-03-17T08:19:35.597Z,88.69
2023-03-17T08:20:35.721Z,88.69
2023-03-17T08:21:35.583Z,88.12
2023-03-17T08:22:35.520Z,87.64
2023-03-17T08:23:35.471Z,87.49
2023-03-17T08:24:35.478Z,87.87
2023-03-17T08:25:35.408Z,88.16
2023-03-17T08:26:35.363Z,87.59
2023-03-17T08:27:35.342Z,87.49
2023-03-17T08:28:35.283Z,87.68
2023-03-17T08:29:35.298Z,87.78
2023-03-17T08:30:35.792Z,87.97
2023-03-17T08:31:35.245Z,88.26
2023-03-17T08:32:35.187Z,87.49
2023-03-17T08:33:35.120Z,87.63
2023-03-17T08:34:35.070Z,87.35
2023-03-17T08:35:35.190Z,87.25
2023-03-17T08:36:35.011Z,86.87
2023-03-17T08:37:34.977Z,86.30
2023-03-17T08:38:34.967Z,86.87
2023-03-17T08:39:34.920Z,86.77
2023-03-17T08:40:34.992Z,87.06
2023-03-17T08:41:34.833Z,86.49
2023-03-17T08:42:34.794Z,86.30
2023-03-17T08:43:34.758Z,87.06
2023-03-17T08:44:34.722Z,86.77
2023-03-17T08:45:34.702Z,87.39
2023-03-17T08:46:34.718Z,86.87
2023-03-17T08:47:34.627Z,86.96
2023-03-17T08:48:34.585Z,86.30
2023-03-17T08:49:34.583Z,86.43
2023-03-17T08:50:34.826Z,86.24
2023-03-17T08:51:34.492Z,86.53
2023-03-17T08:52:34.465Z,86.53
2023-03-17T08:53:34.412Z,86.53
2023-03-17T08:54:34.372Z,86.05
2023-03-17T08:55:34.353Z,86.34
2023-03-17T08:56:34.311Z,85.86
2023-03-17T08:57:34.275Z,86.53
2023-03-17T08:58:34.239Z,85.96
2023-03-17T08:59:34.221Z,86.15
2023-03-17T09:00:34.173Z,85.96
2023-03-17T09:01:34.198Z,85.86
2023-03-17T09:02:34.147Z,86.15
2023-03-17T09:03:34.108Z,86.63
2023-03-17T09:04:34.049Z,86.43
2023-03-17T09:05:36.236Z,86.34
2023-03-17T09:06:33.977Z,86.05
2023-03-17T09:07:34.119Z,86.63
2023-03-17T09:08:33.899Z,86.05
2023-03-17T09:09:33.870Z,86.19
2023-03-17T09:10:34.155Z,85.81
2023-03-17T09:11:33.804Z,85.14
2023-03-17T09:12:34.282Z,85.52
2023-03-17T09:13:33.727Z,85.42
2023-03-17T09:14:42.841Z,85.33
2023-03-17T09:15:33.916Z,85.52
2023-03-17T09:16:33.691Z,85.33
2023-03-17T09:17:33.608Z,85.81
2023-03-17T09:18:33.574Z,86.38
2023-03-17T09:19:33.529Z,86.10
2023-03-17T09:20:33.931Z,85.33
2023-03-17T09:21:33.459Z,86.14
2023-03-17T09:22:33.440Z,85.38
2023-03-17T09:23:33.389Z,86.23
2023-03-17T09:24:33.356Z,85.47
2023-03-17T09:25:33.315Z,85.28
2023-03-17T09:26:33.297Z,85.09
2023-03-17T09:27:33.255Z,85.47
2023-03-17T09:28:33.222Z,85.85
2023-03-17T09:29:33.181Z,85.18
2023-03-17T09:30:33.535Z,84.61
2023-03-17T09:31:33.219Z,84.70
2023-03-17T09:32:33.114Z,85.32
2023-03-17T09:33:33.061Z,84.42
2023-03-17T09:34:33.023Z,84.08
2023-03-17T09:35:33.051Z,85.09
2023-03-17T09:36:32.962Z,85.13
2023-03-17T09:37:32.919Z,85.03
2023-03-17T09:38:32.890Z,84.84
2023-03-17T09:39:32.845Z,84.84
2023-03-17T09:40:33.105Z,85.22
2023-03-17T09:41:32.780Z,85.22
2023-03-17T09:42:32.744Z,84.94
2023-03-17T09:43:32.739Z,84.94
2023-03-17T09:44:32.685Z,85.32
2023-03-17T09:45:32.745Z,85.41
2023-03-17T09:46:32.705Z,85.32
2023-03-17T09:47:32.594Z,85.22
2023-03-17T09:48:32.547Z,85.17
2023-03-17T09:49:32.515Z,85.17
2023-03-17T09:50:32.995Z,85.27
2023-03-17T09:51:32.465Z,84.88
2023-03-17T09:52:32.414Z,84.02
2023-03-17T09:53:32.378Z,84.41
2023-03-17T09:54:32.352Z,84.50
2023-03-17T09:55:32.658Z,83.73
2023-03-17T09:56:32.280Z,83.87
2023-03-17T09:57:32.250Z,84.45
2023-03-17T09:58:32.215Z,83.49
2023-03-17T09:59:32.183Z,83.39
2023-03-17T10:00:32.148Z,83.87
2023-03-17T10:01:32.183Z,83.97
2023-03-17T10:02:32.086Z,83.59
2023-03-17T10:03:32.052Z,83.01
2023-03-17T10:04:32.019Z,82.63
2023-03-17T10:05:32.439Z,82.63
2023-03-17T10:06:31.956Z,82.15
2023-03-17T10:07:31.926Z,82.09
2023-03-17T10:08:32.322Z,82.43
2023-03-17T10:09:31.855Z,81.81
2023-03-17T10:10:32.208Z,82.38
2023-03-17T10:11:31.814Z,81.90
2023-03-17T10:12:31.752Z,81.71
2023-03-17T10:13:31.720Z,81.81
2023-03-17T10:14:31.691Z,81.71
2023-03-17T10:15:31.810Z,81.62
2023-03-17T10:16:31.677Z,81.23
2023-03-17T10:17:31.598Z,81.13
2023-03-17T10:18:31.614Z,80.37
2023-03-17T10:19:31.562Z,80.76
2023-03-17T10:20:31.499Z,80.85
2023-03-17T10:21:31.465Z,80.56
2023-03-17T10:22:31.447Z,80.22
2023-03-17T10:23:31.401Z,79.80
2023-03-17T10:24:31.365Z,79.55
2023-03-17T10:25:31.714Z,79.45
2023-03-17T10:26:31.317Z,79.64
2023-03-17T10:27:31.275Z,79.45
2023-03-17T10:28:31.242Z,79.83
2023-03-17T10:29:31.210Z,79.93
2023-03-17T10:30:31.398Z,79.83
2023-03-17T10:31:31.221Z,80.22
2023-03-17T10:32:31.187Z,79.83
2023-03-17T10:33:31.085Z,79.97
2023-03-17T10:34:31.073Z,78.72
2023-03-17T10:35:31.271Z,78.63
2023-03-17T10:36:30.986Z,78.82
2023-03-17T10:37:30.956Z,78.63
2023-03-17T10:38:30.930Z,78.28
2023-03-17T10:39:32.822Z,78.28
2023-03-17T10:40:31.173Z,78.38
2023-03-17T10:41:30.839Z,77.51
2023-03-17T10:42:30.814Z,77.51
2023-03-17T10:43:30.775Z,76.84
2023-03-17T10:44:30.738Z,76.21
2023-03-17T10:45:30.710Z,76.21
2023-03-17T10:46:30.733Z,76.40
2023-03-17T10:47:30.661Z,75.63
2023-03-17T10:48:30.620Z,75.82
2023-03-17T10:49:30.591Z,75.45
2023-03-17T10:50:31.039Z,75.54
2023-03-17T10:51:30.541Z,75.57
2023-03-17T10:52:30.530Z,75.20
2023-03-17T10:53:30.475Z,74.04
2023-03-17T10:54:30.446Z,73.94
2023-03-17T10:55:30.411Z,74.75
2023-03-17T10:56:30.380Z,74.08
2023-03-17T10:57:30.359Z,74.55
2023-03-17T10:58:30.340Z,73.63
2023-03-17T11:00:30.613Z,72.77
2023-03-17T11:01:30.350Z,72.67
2023-03-17T11:02:30.229Z,71.81
2023-03-17T11:03:30.254Z,72.13
2023-03-17T11:04:30.159Z,72.61
2023-03-17T11:05:30.134Z,72.90
2023-03-17T11:06:30.106Z,72.90
2023-03-17T11:07:30.105Z,71.94
2023-03-17T11:08:30.039Z,71.84
2023-03-17T11:09:30.011Z,71.17
2023-03-17T11:10:30.387Z,71.26
2023-03-17T11:11:29.961Z,70.78
2023-03-17T11:12:29.924Z,70.78
2023-03-17T11:13:29.951Z,71.08
2023-03-17T11:14:29.881Z,71.46
2023-03-17T11:15:29.858Z,70.98
2023-03-17T11:16:29.899Z,70.40
2023-03-17T11:17:29.784Z,70.62
2023-03-17T11:18:31.352Z,69.92
2023-03-17T11:19:29.733Z,70.43
2023-03-17T11:20:30.021Z,69.95
2023-03-17T11:21:29.674Z,69.47
2023-03-17T11:22:29.641Z,69.95
2023-03-17T11:23:29.622Z,70.34
2023-03-17T11:24:30.851Z,70.18
2023-03-17T11:25:29.560Z,68.84
2023-03-17T11:26:29.532Z,68.64
2023-03-17T11:27:29.514Z,69.22
2023-03-17T11:28:29.481Z,69.02
2023-03-17T11:29:29.448Z,68.26
2023-03-17T11:30:29.808Z,68.74
2023-03-17T11:31:29.430Z,68.54
2023-03-17T11:32:29.441Z,68.35
2023-03-17T11:33:29.328Z,68.84
2023-03-17T11:34:29.296Z,68.74
2023-03-17T11:35:29.281Z,69.02
2023-03-17T11:36:29.246Z,68.64
2023-03-17T11:37:29.219Z,68.44
2023-03-17T11:38:29.202Z,68.44
2023-03-17T11:39:29.152Z,68.96
2023-03-17T11:40:29.388Z,67.90
2023-03-17T11:41:29.107Z,68.19
2023-03-17T11:42:29.115Z,68.48
2023-03-17T11:43:29.038Z,67.90
2023-03-17T11:44:29.015Z,67.90
2023-03-17T11:45:28.984Z,68.42
2023-03-17T11:46:29.003Z,68.71
2023-03-17T11:47:28.932Z,68.13
2023-03-17T11:48:28.910Z,68.00
2023-03-17T11:49:28.872Z,67.16
2023-03-17T11:50:28.892Z,67.55
2023-03-17T11:51:28.823Z,67.46
2023-03-17T11:52:28.794Z,67.26
2023-03-17T11:53:28.754Z,67.16
2023-03-17T11:54:28.727Z,68.32
2023-03-17T11:55:28.702Z,67.16
2023-03-17T11:56:28.668Z,66.97
2023-03-17T11:57:28.649Z,67.74
2023-03-17T11:58:28.621Z,67.55
2023-03-17T11:59:28.595Z,67.46
2023-03-17T12:00:28.600Z,67.46
2023-03-17T12:01:28.548Z,67.74
2023-03-17T12:02:28.516Z,67.55
2023-03-17T12:03:28.543Z,67.00
2023-03-17T12:04:28.453Z,66.52
2023-03-17T12:05:28.412Z,67.20
2023-03-17T12:06:28.384Z,67.30
2023-03-17T12:07:28.354Z,67.49
2023-03-17T12:08:28.322Z,66.52
2023-03-17T12:09:28.312Z,66.85
2023-03-17T12:10:28.269Z,67.20
2023-03-17T12:11:28.252Z,66.33
2023-03-17T12:12:28.209Z,66.52
2023-03-17T12:13:28.187Z,66.56
2023-03-17T12:14:28.170Z,66.43
2023-03-17T12:15:28.196Z,66.91
2023-03-17T12:16:28.098Z,65.85
2023-03-17T12:17:29.701Z,65.69
2023-03-17T12:18:28.059Z,65.30
2023-03-17T12:19:28.022Z,65.75
2023-03-17T12:20:27.996Z,66.91
2023-03-17T12:21:27.966Z,65.66
2023-03-17T12:22:27.924Z,66.33
2023-03-17T12:23:27.899Z,66.91
2023-03-17T12:24:27.877Z,66.43
2023-03-17T12:25:27.849Z,66.82
2023-03-17T12:26:27.819Z,66.36
2023-03-17T12:27:27.787Z,66.14
2023-03-17T12:28:27.758Z,65.85
2023-03-17T12:29:27.727Z,65.27
2023-03-17T12:30:27.702Z,65.27
2023-03-17T12:31:27.839Z,65.27
2023-03-17T12:32:27.645Z,65.75
2023-03-17T12:33:27.629Z,65.56
2023-03-17T12:34:27.592Z,65.40
2023-03-17T12:35:27.565Z,65.78
2023-03-17T12:36:27.532Z,65.50
2023-03-17T12:37:27.522Z,65.11
2023-03-17T12:38:27.483Z,65.88
2023-03-17T12:39:27.514Z,65.11
2023-03-17T12:40:27.646Z,65.59
2023-03-17T12:41:27.390Z,65.50
2023-03-17T12:42:27.362Z,65.20
2023-03-17T12:43:27.340Z,65.63
2023-03-17T12:44:27.308Z,65.14
2023-03-17T12:45:27.280Z,64.56
2023-03-17T12:46:27.388Z,65.14
2023-03-17T12:47:27.240Z,65.14
2023-03-17T12:48:27.193Z,64.86
2023-03-17T12:49:27.176Z,64.18
2023-03-17T12:50:27.146Z,63.31
2023-03-17T12:51:27.115Z,63.21
2023-03-17T12:52:27.080Z,64.08
2023-03-17T12:53:27.081Z,64.76